Time;durP1;ratioP1;P1;durP2;ratioP2;P2;SDS_P1;SDS_P2;PMS_P1;PMS_P2;Temp;Humidity;BMP_temperature;BMP_pressure;BME280_temperature;BME280_humidity;BME280_pressure;Samples;Min_cycle;Max_cycle;Signal;HPM_P1;HPM_P2
2021/01/08 00:01:28;;;;;;;38.65;27.88;;;;;;;9.49;66.38;93433.47;5035376;28;20040;-77
2021/01/08 00:03:53;;;;;;;35.05;24.17;;;;;;;9.49;66.17;93421.09;5026658;28;20520;-77
2021/01/08 00:06:20;;;;;;;35.15;26.00;;;;;;;9.39;66.38;93415.97;5031745;28;20085;-77
2021/01/08 00:08:45;;;;;;;38.30;27.13;;;;;;;9.44;65.94;93429.06;5026542;28;20120;-76
2021/01/08 00:11:11;;;;;;;33.35;25.08;;;;;;;9.50;65.99;93432.41;5031368;28;20067;-77
2021/01/08 00:13:36;;;;;;;35.28;25.05;;;;;;;9.43;66.20;93414.31;5029318;28;20040;-77
2021/01/08 00:16:05;;;;;;;32.83;26.00;;;;;;;9.45;66.08;93420.09;5029393;28;20043;-77
2021/01/08 00:18:30;;;;;;;35.67;25.77;;;;;;;9.47;66.31;93423.25;5031905;28;20141;-77
2021/01/08 00:20:56;;;;;;;36.20;26.45;;;;;;;9.44;66.14;93400.06;5027666;28;20547;-77
2021/01/08 00:23:21;;;;;;;34.63;25.48;;;;;;;9.43;65.95;93413.56;5030895;28;20045;-77
2021/01/08 00:25:51;;;;;;;32.55;24.48;;;;;;;9.47;66.26;93406.63;5030958;28;20024;-77
2021/01/08 00:28:17;;;;;;;32.25;23.67;;;;;;;9.47;65.98;93404.00;5027906;28;20040;-77
2021/01/08 00:30:42;;;;;;;36.10;26.08;;;;;;;9.46;65.97;93405.06;5027061;28;20468;-77
2021/01/08 00:33:07;;;;;;;34.60;24.40;;;;;;;9.50;65.80;93395.50;5025694;28;20036;-77
2021/01/08 00:35:36;;;;;;;32.60;24.42;;;;;;;9.47;65.95;93401.34;5029159;28;20570;-77
2021/01/08 00:38:03;;;;;;;29.95;22.30;;;;;;;9.44;65.82;93404.56;5032652;28;20020;-77
2021/01/08 00:40:28;;;;;;;36.78;25.85;;;;;;;9.47;65.95;93404.00;5028637;28;20025;-78
2021/01/08 00:42:53;;;;;;;39.08;26.02;;;;;;;9.49;65.95;93410.53;5027454;28;20687;-78
2021/01/08 00:45:19;;;;;;;38.85;28.50;;;;;;;9.42;66.45;93398.81;5030858;28;20049;-77
2021/01/08 00:47:45;;;;;;;34.72;25.30;;;;;;;9.44;66.30;93409.84;5029770;28;21017;-77
2021/01/08 00:50:10;;;;;;;39.85;27.40;;;;;;;9.53;66.55;93413.38;5030469;28;20597;-77
2021/01/08 00:52:36;;;;;;;47.53;29.75;;;;;;;9.47;66.59;93402.16;5022962;28;20025;-77
2021/01/08 00:55:02;;;;;;;45.47;29.38;;;;;;;9.50;66.42;93400.75;5031931;28;20403;-77
2021/01/08 00:57:27;;;;;;;44.65;29.90;;;;;;;9.47;66.70;93406.63;5022267;28;20041;-77
2021/01/08 00:59:52;;;;;;;50.28;31.42;;;;;;;9.42;66.82;93401.44;5029317;28;20041;-77
2021/01/08 01:02:18;;;;;;;48.45;32.70;;;;;;;9.42;66.81;93407.50;5026005;28;20103;-77
2021/01/08 01:04:43;;;;;;;41.40;28.88;;;;;;;9.45;67.04;93400.84;5033220;28;20032;-78
2021/01/08 01:07:09;;;;;;;43.63;28.63;;;;;;;9.46;66.92;93411.13;5025972;28;20041;-78
2021/01/08 01:09:34;;;;;;;42.67;31.05;;;;;;;9.43;67.08;93395.09;5030316;28;20029;-77
2021/01/08 01:11:59;;;;;;;47.63;31.15;;;;;;;9.39;66.99;93404.66;5027146;28;20123;-77
2021/01/08 01:14:25;;;;;;;44.55;30.77;;;;;;;9.44;66.75;93404.56;5025080;28;20444;-77
2021/01/08 01:16:50;;;;;;;46.72;32.22;;;;;;;9.44;66.99;93407.19;5029728;28;20033;-78
2021/01/08 01:19:16;;;;;;;51.05;32.72;;;;;;;9.46;66.81;93407.69;5029191;28;20029;-77
2021/01/08 01:21:41;;;;;;;49.08;30.67;;;;;;;9.42;67.15;93398.81;5025671;28;20759;-77
2021/01/08 01:24:07;;;;;;;42.08;30.15;;;;;;;9.46;66.76;93405.06;5025609;28;20099;-77
2021/01/08 01:26:33;;;;;;;46.10;29.80;;;;;;;9.46;66.52;93400.56;5029704;28;20036;-77
2021/01/08 01:28:59;;;;;;;43.05;31.55;;;;;;;9.50;66.32;93404.19;5025856;28;20029;-75
2021/01/08 01:31:24;;;;;;;45.47;30.52;;;;;;;9.49;66.61;93394.72;5031539;28;20045;-77
2021/01/08 01:33:50;;;;;;;42.97;28.95;;;;;;;9.51;66.30;93399.69;5024586;28;20045;-78
2021/01/08 01:36:16;;;;;;;40.63;27.52;;;;;;;9.50;66.50;93390.22;5028774;28;20580;-77
2021/01/08 01:38:42;;;;;;;36.80;26.10;;;;;;;9.49;66.48;93372.81;5028626;28;20127;-78
2021/01/08 01:41:07;;;;;;;39.85;29.60;;;;;;;9.53;66.23;93384.34;5032491;28;20031;-78
2021/01/08 01:43:33;;;;;;;33.25;21.92;;;;;;;9.50;66.19;93375.19;5029551;28;20390;-78
2021/01/08 01:45:58;;;;;;;35.47;24.30;;;;;;;9.52;66.38;93374.91;5029288;28;20512;-77
2021/01/08 01:48:24;;;;;;;32.15;22.60;;;;;;;9.50;66.21;93379.66;5032193;28;20128;-78
2021/01/08 01:50:51;;;;;;;28.35;19.48;;;;;;;9.55;66.28;93388.28;5029137;28;20124;-77
2021/01/08 01:53:17;;;;;;;29.17;19.38;;;;;;;9.54;66.44;93391.97;5029237;28;20037;-77
2021/01/08 01:55:43;;;;;;;30.02;18.58;;;;;;;9.53;66.09;93385.13;5035073;28;20086;-77
2021/01/08 01:58:09;;;;;;;23.27;16.60;;;;;;;9.48;66.46;93395.03;5050156;28;20057;-77
2021/01/08 02:00:34;;;;;;;24.65;17.60;;;;;;;9.45;66.57;93371.84;5030936;28;20041;-77
2021/01/08 02:03:13;;;;;;;24.02;16.35;;;;;;;9.48;66.65;93385.22;5026777;28;20064;-77
2021/01/08 02:05:40;;;;;;;23.88;16.85;;;;;;;9.46;66.58;93378.69;5028833;28;20045;-78
2021/01/08 02:08:17;;;;;;;24.13;17.15;;;;;;;9.40;66.51;93364.81;5032023;28;20076;-78
2021/01/08 02:10:55;;;;;;;27.23;18.13;;;;;;;9.42;66.58;93361.88;5033389;28;20565;-77
2021/01/08 02:13:30;;;;;;;23.17;15.65;;;;;;;9.41;66.65;93353.19;5030995;28;20033;-78
2021/01/08 02:15:57;;;;;;;23.25;14.65;;;;;;;9.44;66.39;93354.44;5029357;28;20047;-77
2021/01/08 02:18:25;;;;;;;22.27;14.82;;;;;;;9.46;66.15;93355.75;5029033;28;20063;-77
2021/01/08 02:20:52;;;;;;;19.75;13.82;;;;;;;9.49;65.97;93360.41;5030941;28;20049;-77
2021/01/08 02:23:24;;;;;;;21.20;13.02;;;;;;;9.48;66.11;93366.00;5036402;28;20349;-78
2021/01/08 02:25:50;;;;;;;18.48;13.00;;;;;;;9.48;66.11;93350.94;5054310;28;20040;-78
2021/01/08 02:28:26;;;;;;;18.38;14.88;;;;;;;9.44;65.98;93344.69;5038693;28;20068;-78
2021/01/08 02:30:53;;;;;;;20.00;12.27;;;;;;;9.43;65.88;93323.91;5050860;28;20072;-77
2021/01/08 02:33:25;;;;;;;19.92;13.20;;;;;;;9.47;66.35;93343.34;5036674;28;20036;-77
2021/01/08 02:35:52;;;;;;;16.58;12.73;;;;;;;9.46;66.31;93339.13;5051717;28;20044;-78
2021/01/08 02:38:20;;;;;;;18.10;12.57;;;;;;;9.47;66.28;93317.75;5050400;28;20037;-77
2021/01/08 02:40:48;;;;;;;19.15;13.00;;;;;;;9.39;66.29;93304.44;5055994;28;20028;-77
2021/01/08 02:43:22;;;;;;;16.58;12.18;;;;;;;9.47;66.01;93306.41;5047376;28;20409;-78
2021/01/08 02:45:49;;;;;;;18.90;13.25;;;;;;;9.46;65.95;93299.56;5050276;28;20032;-78
2021/01/08 02:48:15;;;;;;;21.20;13.35;;;;;;;9.49;65.67;93310.31;5051819;28;20439;-77
2021/01/08 02:50:41;;;;;;;21.77;14.48;;;;;;;9.50;65.60;93300.53;5031370;28;20044;-78
2021/01/08 02:53:12;;;;;;;20.67;16.27;;;;;;;9.47;65.64;93296.66;5049074;28;20097;-77
2021/01/08 02:55:45;;;;;;;24.20;15.73;;;;;;;9.41;66.15;93299.66;5051427;28;20017;-78
2021/01/08 02:58:11;;;;;;;22.20;15.38;;;;;;;9.44;66.54;93296.44;5049519;28;20393;-78
2021/01/08 03:00:36;;;;;;;22.92;15.77;;;;;;;9.43;66.36;93294.88;5050333;28;20037;-78
2021/01/08 03:03:03;;;;;;;22.25;16.25;;;;;;;9.43;66.71;93310.72;5049672;28;20064;-78
2021/01/08 03:05:31;;;;;;;24.20;15.75;;;;;;;9.43;66.47;93300.16;5048814;28;20612;-78
2021/01/08 03:07:57;;;;;;;23.27;16.40;;;;;;;9.45;66.32;93300.63;5051936;28;20035;-78
2021/01/08 03:10:26;;;;;;;24.30;15.73;;;;;;;9.45;66.35;93288.22;5051372;28;20029;-78
2021/01/08 03:13:00;;;;;;;22.17;16.30;;;;;;;9.45;66.36;93290.09;5037307;28;20151;-78
2021/01/08 03:15:26;;;;;;;25.05;16.23;;;;;;;9.44;65.99;93302.50;5049315;28;20125;-78
2021/01/08 03:17:52;;;;;;;22.88;16.25;;;;;;;9.46;66.57;93294.28;5014014;28;20143;-78
2021/01/08 03:20:18;;;;;;;30.48;19.20;;;;;;;9.46;66.37;93291.66;4992500;28;20056;-78
2021/01/08 03:22:44;;;;;;;28.08;18.05;;;;;;;9.44;66.35;93289.31;5012778;28;20025;-78
2021/01/08 03:25:09;;;;;;;27.42;18.10;;;;;;;9.44;66.20;93270.84;5032235;28;20052;-78
2021/01/08 03:27:35;;;;;;;26.70;18.67;;;;;;;9.43;66.18;93279.81;5032051;28;20032;-78
2021/01/08 03:30:01;;;;;;;24.13;17.33;;;;;;;9.35;66.00;93254.16;5025366;28;20075;-77
2021/01/08 03:32:26;;;;;;;27.73;17.90;;;;;;;9.45;66.24;93277.69;5050265;28;20045;-78
2021/01/08 03:34:52;;;;;;;30.08;19.98;;;;;;;9.46;66.16;93278.47;5048336;28;20400;-78
2021/01/08 03:37:18;;;;;;;27.52;19.13;;;;;;;9.48;66.33;93273.69;5049086;28;20020;-79
2021/01/08 03:39:43;;;;;;;28.27;19.65;;;;;;;9.45;66.34;93266.34;5050327;28;20488;-78
2021/01/08 03:42:09;;;;;;;28.58;20.90;;;;;;;9.45;66.46;93263.72;5027697;28;20052;-78
2021/01/08 03:44:34;;;;;;;27.80;20.10;;;;;;;9.46;66.11;93258.16;5047303;28;20150;-78
2021/01/08 03:47:00;;;;;;;24.35;17.48;;;;;;;9.48;66.32;93260.50;5035277;28;20070;-78
2021/01/08 03:49:25;;;;;;;26.48;17.77;;;;;;;9.49;66.38;93246.22;5055581;28;20112;-78
2021/01/08 03:51:51;;;;;;;25.80;17.25;;;;;;;9.42;66.94;93237.94;5026846;28;20107;-78
2021/01/08 03:54:16;;;;;;;25.73;17.45;;;;;;;9.47;66.87;93253.66;5026142;28;20040;-78
2021/01/08 03:56:42;;;;;;;25.67;16.70;;;;;;;9.39;66.67;93227.97;5048949;28;20386;-78
2021/01/08 03:59:07;;;;;;;27.10;18.20;;;;;;;9.39;66.65;93238.50;5031463;28;20378;-78
2021/01/08 04:01:32;;;;;;;25.33;17.90;;;;;;;9.40;66.58;93225.03;5051221;28;20032;-78
2021/01/08 04:03:58;;;;;;;24.25;17.45;;;;;;;9.40;66.49;93232.16;5040917;28;20047;-78
2021/01/08 04:06:23;;;;;;;29.92;20.67;;;;;;;9.38;66.54;93223.78;5031084;28;20048;-78
2021/01/08 04:08:49;;;;;;;24.08;17.05;;;;;;;9.38;66.46;93231.69;5026834;28;20033;-78
2021/01/08 04:11:14;;;;;;;26.42;18.08;;;;;;;9.37;66.60;93215.09;5031005;28;20052;-78
2021/01/08 04:13:39;;;;;;;24.05;17.13;;;;;;;9.39;66.81;93209.50;5031527;28;20044;-78
2021/01/08 04:16:05;;;;;;;25.02;17.05;;;;;;;9.40;66.59;93206.59;5030661;28;20029;-78
2021/01/08 04:18:30;;;;;;;24.33;16.38;;;;;;;9.33;66.66;93189.63;5028193;28;20052;-78
2021/01/08 04:20:56;;;;;;;25.65;16.10;;;;;;;9.34;66.58;93186.66;5028617;28;20095;-78
2021/01/08 04:23:21;;;;;;;23.00;16.40;;;;;;;9.37;66.53;93190.56;5028731;28;20037;-78
2021/01/08 04:25:47;;;;;;;23.35;15.63;;;;;;;9.32;66.90;93180.13;5033112;28;20025;-79
2021/01/08 04:28:12;;;;;;;24.73;16.70;;;;;;;9.36;66.79;93183.75;5027261;28;20041;-78
2021/01/08 04:30:38;;;;;;;25.63;17.40;;;;;;;9.36;66.90;93175.81;5029855;28;20064;-78
2021/01/08 04:33:03;;;;;;;26.35;17.13;;;;;;;9.37;67.03;93174.75;5026564;28;20324;-78
2021/01/08 04:35:29;;;;;;;27.40;18.27;;;;;;;9.30;66.84;93169.88;5026059;28;20045;-78
2021/01/08 04:37:54;;;;;;;26.75;16.73;;;;;;;9.36;67.08;93167.91;5032016;28;20025;-78
2021/01/08 04:40:20;;;;;;;24.02;17.88;;;;;;;9.38;67.32;93169.16;5028880;28;20024;-78
2021/01/08 04:42:46;;;;;;;27.13;19.83;;;;;;;9.36;68.07;93162.63;5032609;28;20037;-78
2021/01/08 04:45:11;;;;;;;28.10;18.77;;;;;;;9.39;67.94;93178.66;5026154;28;20060;-78
2021/01/08 04:47:40;;;;;;;26.05;19.02;;;;;;;9.41;67.73;93170.44;5032992;28;20066;-79
2021/01/08 04:50:07;;;;;;;28.15;20.00;;;;;;;9.38;68.11;93163.91;5031548;28;20104;-78
2021/01/08 04:55:17;;;;;;;30.10;20.67;;;;;;;9.37;68.29;93151.03;4962025;28;20044;-78
2021/01/08 04:57:46;;;;;;;30.23;20.17;;;;;;;9.38;68.05;93155.97;5031089;28;20065;-78
2021/01/08 05:00:13;;;;;;;27.80;21.20;;;;;;;9.38;67.37;93139.41;5026560;28;20132;-78
2021/01/08 05:02:38;;;;;;;24.83;19.17;;;;;;;9.36;67.31;93142.34;5027964;28;20067;-78
2021/01/08 05:05:05;;;;;;;30.25;20.15;;;;;;;9.42;67.18;93143.78;5043640;28;20102;-78
2021/01/08 05:07:30;;;;;;;27.02;19.15;;;;;;;9.43;67.14;93147.22;5032536;28;20031;-78
2021/01/08 05:09:56;;;;;;;25.10;19.33;;;;;;;9.46;67.25;93170.34;5025317;28;20029;-78
2021/01/08 05:12:37;;;;;;;28.30;19.90;;;;;;;9.40;67.36;93148.56;5031673;28;20040;-78
2021/01/08 05:15:07;;;;;;;26.85;18.80;;;;;;;9.41;67.96;93157.25;5028953;28;20484;-78
2021/01/08 05:17:33;;;;;;;29.58;22.55;;;;;;;9.48;67.33;93157.66;5030438;28;20485;-78
2021/01/08 05:19:58;;;;;;;28.45;20.92;;;;;;;9.45;67.49;93155.59;5034808;28;20066;-78
2021/01/08 05:22:24;;;;;;;30.75;22.00;;;;;;;9.48;67.55;93155.75;5030331;28;20128;-78
2021/01/08 05:24:50;;;;;;;59.10;24.92;;;;;;;9.47;68.12;93171.91;5035545;28;20520;-78
2021/01/08 05:27:28;;;;;;;26.27;19.88;;;;;;;9.46;68.12;93162.44;5030643;28;20040;-78
2021/01/08 05:29:53;;;;;;;26.80;20.17;;;;;;;9.45;67.73;93139.75;5045164;28;20041;-78
2021/01/08 05:32:19;;;;;;;28.63;20.83;;;;;;;9.45;67.25;93145.81;5027569;28;20041;-78
2021/01/08 05:34:44;;;;;;;30.83;19.48;;;;;;;9.45;67.23;93143.19;5033547;28;21365;-78
2021/01/08 05:37:14;;;;;;;28.08;21.02;;;;;;;9.45;67.19;93139.75;5027764;28;20041;-78
2021/01/08 05:39:41;;;;;;;24.95;19.65;;;;;;;9.47;67.15;93151.59;5032203;28;20132;-78
2021/01/08 05:42:07;;;;;;;30.65;19.63;;;;;;;9.44;67.02;93138.97;5028132;28;20069;-78
2021/01/08 05:44:33;;;;;;;28.52;19.40;;;;;;;9.43;67.20;93142.69;5032388;28;20087;-79
2021/01/08 05:47:01;;;;;;;29.52;18.90;;;;;;;9.50;66.93;93147.56;5029937;28;20113;-78
2021/01/08 05:49:28;;;;;;;33.42;21.42;;;;;;;9.54;66.96;93145.91;5033065;28;20538;-78
2021/01/08 05:51:54;;;;;;;27.48;20.35;;;;;;;9.61;67.13;93143.63;5030580;28;20128;-78
2021/01/08 05:54:20;;;;;;;29.75;21.38;;;;;;;9.62;66.70;93149.69;5032008;28;20088;-78
2021/01/08 05:56:46;;;;;;;32.58;22.40;;;;;;;9.54;67.28;93127.44;5029720;28;20049;-78
2021/01/08 05:59:11;;;;;;;27.42;19.92;;;;;;;9.56;67.23;93135.84;5034245;28;20130;-78
2021/01/08 06:01:38;;;;;;;28.60;20.25;;;;;;;9.57;66.82;93129.50;5030460;28;20030;-78
2021/01/08 06:04:05;;;;;;;33.65;22.83;;;;;;;9.64;67.35;93121.94;5047968;28;20390;-78
2021/01/08 06:06:41;;;;;;;31.83;21.63;;;;;;;9.61;66.81;93119.91;5052008;28;20047;-78
2021/01/08 06:09:07;;;;;;;27.27;20.10;;;;;;;9.61;66.62;93130.44;5050311;28;20072;-79
2021/01/08 06:11:35;;;;;;;26.52;19.92;;;;;;;9.63;66.44;93130.91;5051191;28;20446;-78
2021/01/08 06:14:02;;;;;;;28.25;20.83;;;;;;;9.67;66.21;93124.00;5051998;28;20037;-78
2021/01/08 06:16:36;;;;;;;28.52;20.25;;;;;;;9.69;66.21;93129.72;5049717;28;20048;-78
2021/01/08 06:19:03;;;;;;;25.88;18.45;;;;;;;9.71;65.99;93143.41;5049113;28;20036;-78
2021/01/08 06:21:36;;;;;;;39.95;34.25;;;;;;;9.69;66.31;93129.72;5051883;28;20037;-78
2021/01/08 06:24:01;;;;;;;39.97;29.80;;;;;;;9.70;66.60;93099.63;5031900;28;20044;-77
2021/01/08 06:26:29;;;;;;;40.92;28.77;;;;;;;9.73;67.10;93114.06;5048654;28;20033;-78
2021/01/08 06:29:00;;;;;;;39.50;29.40;;;;;;;9.74;67.00;93129.63;5050515;28;20027;-78
2021/01/08 06:31:35;;;;;;;41.45;28.98;;;;;;;9.78;67.05;93127.16;5033264;28;21220;-78
2021/01/08 06:34:01;;;;;;;;;;;;;;;9.80;66.50;93112.59;5028479;28;20486;-78
2021/01/08 06:36:33;;;;;;;40.72;27.85;;;;;;;9.77;66.68;93120.34;5027549;28;19923;-78
2021/01/08 06:39:06;;;;;;;41.40;29.27;;;;;;;9.75;66.88;93119.84;5032683;28;20045;-78
2021/01/08 06:41:32;;;;;;;39.60;27.42;;;;;;;9.74;67.14;93116.41;5030084;28;20075;-78
2021/01/08 06:44:01;;;;;;;39.42;29.35;;;;;;;9.73;66.98;93125.41;5031420;28;20056;-78
2021/01/08 06:46:37;;;;;;;43.13;28.80;;;;;;;9.81;66.70;93132.63;5025740;28;20020;-78
2021/01/08 06:49:05;;;;;;;47.58;32.47;;;;;;;9.89;66.73;93129.25;5031316;28;20041;-78
2021/01/08 06:51:35;;;;;;;48.25;33.55;;;;;;;9.93;66.66;93122.31;5030877;28;20041;-78
2021/01/08 06:54:03;;;;;;;40.10;29.13;;;;;;;9.96;66.33;93137.56;5028512;28;20088;-78
2021/01/08 06:56:32;;;;;;;40.92;27.70;;;;;;;9.98;66.34;93111.63;5024850;28;20103;-78
2021/01/08 06:58:59;;;;;;;46.67;37.13;;;;;;;9.98;66.77;93138.03;5030534;28;20059;-78
2021/01/08 07:01:53;;;;;;;44.72;31.10;;;;;;;9.91;66.91;93113.13;5028516;28;20025;-78
2021/01/08 07:04:22;;;;;;;47.47;33.50;;;;;;;10.02;66.68;93118.97;5029337;28;20436;-78
2021/01/08 07:06:48;;;;;;;77.53;44.13;;;;;;;10.04;66.71;93129.97;5025048;28;20133;-78
2021/01/08 07:09:14;;;;;;;106.97;60.95;;;;;;;10.07;66.58;93126.75;5030621;28;20049;-78
2021/01/08 07:11:39;;;;;;;57.42;38.35;;;;;;;10.14;66.45;93135.78;5025135;28;20607;-78
2021/01/08 07:14:24;;;;;;;43.40;30.08;;;;;;;10.19;65.88;93132.28;5028315;28;20028;-78
2021/01/08 07:16:51;;;;;;;41.75;28.25;;;;;;;10.28;65.65;93157.66;5032089;28;20045;-78
2021/01/08 07:19:19;;;;;;;46.70;32.40;;;;;;;10.35;65.70;93154.59;5028252;28;20041;-78
2021/01/08 07:21:56;;;;;;;45.53;30.02;;;;;;;10.34;65.97;93145.91;5044031;28;20106;-78
2021/01/08 07:24:31;;;;;;;41.38;26.20;;;;;;;10.38;65.82;93120.44;5022501;28;20599;-78
2021/01/08 07:27:16;;;;;;;;;;;;;;;10.47;65.04;93135.53;5040397;28;20040;-78
2021/01/08 07:29:51;;;;;;;40.45;24.45;;;;;;;10.47;64.71;93133.69;5026084;28;20278;-78
2021/01/08 07:32:53;;;;;;;39.58;25.65;;;;;;;10.46;65.14;93141.94;5027978;28;20132;-79
2021/01/08 07:35:20;;;;;;;51.47;31.23;;;;;;;10.37;65.95;93123.38;5028441;28;20129;-78
2021/01/08 07:38:31;;;;;;;35.40;24.85;;;;;;;10.44;65.40;93118.44;5027995;28;20032;-78
2021/01/08 07:40:59;;;;;;;37.55;25.35;;;;;;;10.41;65.36;93103.19;5026560;28;20239;-78
2021/01/08 07:43:36;;;;;;;37.30;25.90;;;;;;;10.50;64.79;93105.88;5026900;28;20055;-78
2021/01/08 07:46:03;;;;;;;45.45;29.30;;;;;;;10.54;65.14;93099.69;5028376;28;20082;-78
2021/01/08 07:48:34;;;;;;;68.00;45.47;;;;;;;10.54;65.96;93112.13;5029730;28;20060;-78
2021/01/08 07:51:02;;;;;;;60.80;38.15;;;;;;;10.50;65.69;93093.47;5044289;28;20045;-78
2021/01/08 07:53:49;;;;;;;45.97;29.15;;;;;;;10.51;66.45;93108.22;5021342;28;20041;-79
2021/01/08 07:56:21;;;;;;;37.00;27.13;;;;;;;10.57;66.31;93101.72;5031271;28;20052;-78
2021/01/08 07:58:57;;;;;;;42.60;29.48;;;;;;;10.58;66.97;93111.19;5026569;28;20484;-78
2021/01/08 08:01:22;;;;;;;43.28;29.60;;;;;;;10.57;66.62;93082.44;5032719;28;20424;-78
2021/01/08 08:04:00;;;;;;;43.75;29.48;;;;;;;10.65;66.53;93044.72;5027427;28;20040;-78
2021/01/08 08:06:28;;;;;;;40.20;26.50;;;;;;;10.70;65.92;93049.88;5026169;28;20048;-78
2021/01/08 08:08:57;;;;;;;40.35;28.15;;;;;;;10.72;65.58;93077.53;5022929;28;20186;-78
2021/01/08 08:11:27;;;;;;;42.90;32.40;;;;;;;10.75;65.95;93060.28;5029028;28;20037;-78
2021/01/08 08:13:56;;;;;;;47.30;31.23;;;;;;;10.89;65.77;93076.03;5029739;28;20067;-79
2021/01/08 08:16:38;;;;;;;44.88;31.05;;;;;;;10.99;64.92;93059.88;5032996;28;20013;-78
2021/01/08 08:19:06;;;;;;;43.20;30.15;;;;;;;10.99;64.46;93065.16;5027345;28;20055;-78
2021/01/08 08:21:32;;;;;;;49.05;32.97;;;;;;;11.06;64.55;93062.84;5031805;28;20128;-78
2021/01/08 08:24:03;;;;;;;51.42;36.38;;;;;;;11.03;65.24;93058.19;5026772;28;20123;-78
2021/01/08 08:26:30;;;;;;;49.38;35.35;;;;;;;11.11;65.48;93079.34;5027158;28;20041;-78
2021/01/08 08:29:10;;;;;;;58.70;37.55;;;;;;;11.06;65.48;93045.09;5024612;28;20407;-78
2021/01/08 08:31:41;;;;;;;56.17;36.47;;;;;;;11.08;65.98;93071.25;5043472;28;20044;-78
2021/01/08 08:34:09;;;;;;;64.95;41.97;;;;;;;11.00;66.43;93048.19;5044137;28;20094;-78
2021/01/08 08:36:36;;;;;;;64.70;43.42;;;;;;;11.06;66.26;93058.31;5049531;28;20044;-78
2021/01/08 08:39:09;;;;;;;69.95;46.35;;;;;;;11.04;66.49;93068.44;5017947;28;20033;-78
2021/01/08 08:41:37;;;;;;;68.50;46.15;;;;;;;11.04;66.35;93046.53;5025311;28;20545;-78
2021/01/08 08:44:14;;;;;;;76.25;48.85;;;;;;;11.02;66.50;93064.53;5030553;28;20440;-78
2021/01/08 08:46:55;;;;;;;83.80;50.42;;;;;;;10.99;66.55;93050.09;5035374;28;20093;-78
2021/01/08 08:49:28;;;;;;;76.60;49.85;;;;;;;10.98;66.29;93045.09;5047466;28;20348;-78
2021/01/08 08:51:54;;;;;;;84.90;51.95;;;;;;;10.96;66.63;93071.06;5047573;28;20735;-78
2021/01/08 08:54:23;;;;;;;114.13;60.15;;;;;;;10.91;66.89;93044.75;5047012;28;20043;-78
2021/01/08 08:56:52;;;;;;;79.60;48.88;;;;;;;10.90;66.87;93051.16;5042479;28;20040;-78
2021/01/08 08:59:40;;;;;;;82.28;49.05;;;;;;;10.97;66.76;93054.91;5029690;28;20113;-78
2021/01/08 09:02:21;;;;;;;79.18;48.25;;;;;;;11.01;66.64;93049.75;5046019;28;20479;-78
2021/01/08 09:04:53;;;;;;;80.00;49.20;;;;;;;11.08;66.59;93026.31;5048349;28;20504;-78
2021/01/08 09:07:25;;;;;;;81.72;50.15;;;;;;;11.06;66.69;93021.31;5047855;28;20029;-78
2021/01/08 09:09:58;;;;;;;75.15;48.05;;;;;;;11.18;66.90;93040.00;5047005;28;20048;-78
2021/01/08 09:12:33;;;;;;;76.15;49.05;;;;;;;11.21;66.94;93038.59;5048280;28;20036;-78
2021/01/08 09:15:06;;;;;;;76.95;49.20;;;;;;;11.34;66.83;93045.59;5042254;28;20124;-78
2021/01/08 09:17:42;;;;;;;90.32;54.22;;;;;;;11.34;66.65;93034.25;5046434;28;20024;-78
2021/01/08 09:20:13;;;;;;;77.10;47.58;;;;;;;11.29;66.33;93028.00;5059693;28;20396;-79
2021/01/08 09:22:39;;;;;;;67.07;45.58;;;;;;;11.41;66.42;93045.91;5044573;28;20029;-78
2021/01/08 09:25:06;;;;;;;65.47;46.00;;;;;;;11.42;65.93;93025.53;5048039;28;20421;-78
2021/01/08 09:27:34;;;;;;;71.10;46.42;;;;;;;11.51;65.77;93021.00;5048938;28;20396;-78
2021/01/08 09:30:10;;;;;;;76.68;48.17;;;;;;;11.60;66.07;93022.56;5048458;28;20045;-78
2021/01/08 09:32:36;;;;;;;81.97;50.50;;;;;;;11.62;65.97;93015.09;5030842;28;20449;-78
2021/01/08 09:35:04;;;;;;;84.10;50.33;;;;;;;11.64;65.96;93030.66;5047044;28;20035;-78
2021/01/08 09:43:18;;;;;;;61.38;42.22;;;;;;;11.64;66.04;93017.41;4980799;28;20505;-78
2021/01/08 09:45:44;;;;;;;75.63;47.40;;;;;;;11.59;66.37;93010.41;5017141;28;20045;-78
2021/01/08 09:48:21;;;;;;;69.53;44.72;;;;;;;11.62;66.29;93015.09;5026076;28;20039;-79
2021/01/08 09:50:58;;;;;;;141.18;82.38;;;;;;;11.69;66.36;92996.09;5015924;28;20045;-78
2021/01/08 09:53:23;;;;;;;72.78;47.33;;;;;;;11.70;66.49;93010.88;5013976;28;20066;-78
2021/01/08 09:55:50;;;;;;;77.65;48.42;;;;;;;11.75;66.45;92999.38;5034459;28;20059;-78
2021/01/08 09:58:15;;;;;;;72.15;47.42;;;;;;;11.77;66.52;92989.25;5028926;28;20072;-79
2021/01/08 10:00:41;;;;;;;75.15;46.53;;;;;;;11.85;65.95;92972.56;5033241;28;20052;-78
2021/01/08 10:03:18;;;;;;;144.27;79.60;;;;;;;11.91;66.10;92960.72;5033452;28;20075;-78
2021/01/08 10:05:43;;;;;;;91.20;52.67;;;;;;;11.96;66.12;92965.84;5055457;28;20447;-78
2021/01/08 10:08:23;;;;;;;64.65;42.20;;;;;;;11.99;66.41;92949.31;5038201;28;20027;-78
2021/01/08 10:10:48;;;;;;;72.68;47.60;;;;;;;11.99;66.42;92965.97;5039196;28;20325;-78
2021/01/08 10:13:16;;;;;;;103.72;63.33;;;;;;;11.98;65.99;92948.53;5034733;28;20722;-78
2021/01/08 10:15:53;;;;;;;69.05;47.95;;;;;;;12.03;65.77;92940.44;5035220;28;20463;-78
2021/01/08 10:18:25;;;;;;;75.78;50.55;;;;;;;12.01;66.00;92947.16;5031053;28;20113;-78
2021/01/08 10:20:51;;;;;;;69.75;48.85;;;;;;;12.05;65.69;92932.94;5032040;28;20261;-79
2021/01/08 10:23:19;;;;;;;72.32;52.45;;;;;;;12.00;66.52;92949.00;5041229;28;20082;-78
2021/01/08 10:25:45;;;;;;;76.78;49.40;;;;;;;12.05;66.63;92948.06;5036790;28;21161;-78
2021/01/08 10:28:20;;;;;;;73.03;48.17;;;;;;;12.13;66.47;92944.59;5038144;28;20323;-78
2021/01/08 10:30:48;;;;;;;75.60;51.25;;;;;;;12.20;66.66;92942.22;5051121;28;20044;-78
2021/01/08 10:33:14;;;;;;;83.55;53.50;;;;;;;12.21;66.69;92930.56;5036887;28;20037;-78
2021/01/08 10:35:47;;;;;;;87.80;56.83;;;;;;;12.19;66.60;92922.13;5033067;28;20044;-79
2021/01/08 10:38:12;;;;;;;82.65;56.15;;;;;;;12.30;66.24;92941.09;5033768;28;20056;-79
2021/01/08 10:40:38;;;;;;;80.43;53.97;;;;;;;12.25;66.42;92934.09;5023605;28;20040;-78
2021/01/08 10:43:03;;;;;;;90.40;61.60;;;;;;;12.11;66.97;92930.91;5020290;28;20408;-78
2021/01/08 10:45:29;;;;;;;79.43;53.60;;;;;;;11.84;67.04;92916.19;5020404;28;20514;-78
2021/01/08 10:47:54;;;;;;;81.40;55.83;;;;;;;11.92;67.14;92922.56;5017967;28;20060;-78
2021/01/08 10:50:20;;;;;;;74.05;52.28;;;;;;;11.90;67.60;92891.13;5023416;28;20193;-78
2021/01/08 10:52:45;;;;;;;77.35;53.30;;;;;;;12.04;67.49;92896.97;5018274;28;20062;-78
2021/01/08 10:55:11;;;;;;;87.13;59.90;;;;;;;12.08;67.45;92932.31;5019261;28;20551;-78
2021/01/08 10:57:37;;;;;;;89.80;60.80;;;;;;;12.17;67.92;92908.41;5021834;28;20123;-78
2021/01/08 11:00:09;;;;;;;103.60;68.93;;;;;;;12.14;67.91;92901.13;5019662;28;20041;-79
2021/01/08 11:02:35;;;;;;;93.88;64.22;;;;;;;12.21;67.72;92893.47;5017781;28;20152;-78
2021/01/08 11:05:02;;;;;;;101.88;70.63;;;;;;;12.26;67.87;92888.00;5019598;28;20032;-78
2021/01/08 11:07:27;;;;;;;97.78;69.47;;;;;;;12.32;67.36;92893.84;5038842;28;20167;-79
2021/01/08 11:09:53;;;;;;;89.50;63.05;;;;;;;12.18;67.81;92878.19;5018695;28;20476;-78
2021/01/08 11:12:20;;;;;;;103.53;71.40;;;;;;;12.11;68.05;92894.63;5014856;28;20299;-78
2021/01/08 11:14:46;;;;;;;111.57;75.72;;;;;;;12.17;68.14;92905.78;5020628;28;20251;-78
2021/01/08 11:17:13;;;;;;;97.22;63.78;;;;;;;12.19;68.09;92879.75;5018480;28;20352;-78
2021/01/08 11:19:38;;;;;;;85.25;57.05;;;;;;;12.17;68.10;92860.00;5021591;28;20040;-78
2021/01/08 11:22:04;;;;;;;56.83;44.67;;;;;;;12.21;67.63;92814.00;5011181;28;21228;-79
2021/01/08 11:24:29;;;;;;;57.35;41.80;;;;;;;12.30;67.65;92840.44;5016897;28;20538;-78
2021/01/08 11:26:55;;;;;;;51.85;39.92;;;;;;;12.41;67.79;92838.97;5012416;28;20033;-79
2021/01/08 11:29:21;;;;;;;58.13;44.30;;;;;;;12.44;67.36;92833.78;5016090;28;20662;-78
2021/01/08 11:31:47;;;;;;;56.50;43.00;;;;;;;12.46;67.34;92850.13;5017968;28;20091;-78
2021/01/08 11:34:12;;;;;;;56.60;41.83;;;;;;;12.46;67.71;92820.97;5015026;28;20032;-78
2021/01/08 11:36:39;;;;;;;51.50;37.67;;;;;;;12.46;67.38;92801.69;5022150;28;20066;-78